sensor_id;sensor_type;location;lat;lon;timestamp;pressure;altitude;pressure_sealevel;temperature;humidity
62847;BME280;49477;35.676;139.586;2023-05-15T00:00:09;100797.22;;;22.13;48.18
62847;BME280;49477;35.676;139.586;2023-05-15T00:02:39;100798.90;;;22.31;47.97
62847;BME280;49477;35.676;139.586;2023-05-15T00:05:09;100799.34;;;22.37;47.67
62847;BME280;49477;35.676;139.586;2023-05-15T00:07:39;100802.31;;;22.31;47.83
62847;BME280;49477;35.676;139.586;2023-05-15T00:10:09;100804.02;;;22.33;47.24
62847;BME280;49477;35.676;139.586;2023-05-15T00:12:38;100803.28;;;22.59;46.66
62847;BME280;49477;35.676;139.586;2023-05-15T00:15:08;100801.27;;;22.45;47.33
62847;BME280;49477;35.676;139.586;2023-05-15T00:17:38;100799.64;;;22.32;47.49
62847;BME280;49477;35.676;139.586;2023-05-15T00:20:09;100794.68;;;22.58;47.23
62847;BME280;49477;35.676;139.586;2023-05-15T00:22:39;100788.82;;;22.63;47.44
62847;BME280;49477;35.676;139.586;2023-05-15T00:25:09;100792.87;;;22.98;46.81
62847;BME280;49477;35.676;139.586;2023-05-15T00:27:38;100794.01;;;22.96;46.09
62847;BME280;49477;35.676;139.586;2023-05-15T00:30:09;100794.27;;;23.08;46.27
62847;BME280;49477;35.676;139.586;2023-05-15T00:32:38;100794.23;;;23.27;45.72
62847;BME280;49477;35.676;139.586;2023-05-15T00:35:09;100795.43;;;23.15;46.42
62847;BME280;49477;35.676;139.586;2023-05-15T00:37:38;100796.13;;;23.24;46.28
62847;BME280;49477;35.676;139.586;2023-05-15T00:40:10;100794.09;;;22.89;45.74
62847;BME280;49477;35.676;139.586;2023-05-15T00:42:41;100792.82;;;22.91;45.04
62847;BME280;49477;35.676;139.586;2023-05-15T00:45:10;100792.50;;;23.52;45.29
62847;BME280;49477;35.676;139.586;2023-05-15T00:47:41;100792.35;;;23.44;45.27
62847;BME280;49477;35.676;139.586;2023-05-15T00:50:12;100791.72;;;23.24;44.78
62847;BME280;49477;35.676;139.586;2023-05-15T00:52:41;100788.73;;;23.28;44.32
62847;BME280;49477;35.676;139.586;2023-05-15T00:55:10;100785.83;;;23.62;44.69
62847;BME280;49477;35.676;139.586;2023-05-15T00:57:42;100785.79;;;23.59;43.96
62847;BME280;49477;35.676;139.586;2023-05-15T01:00:12;100787.58;;;23.79;44.71
62847;BME280;49477;35.676;139.586;2023-05-15T01:02:42;100787.17;;;23.39;44.12
62847;BME280;49477;35.676;139.586;2023-05-15T01:05:12;100785.85;;;23.38;43.17
62847;BME280;49477;35.676;139.586;2023-05-15T01:07:47;100783.42;;;23.47;44.46
62847;BME280;49477;35.676;139.586;2023-05-15T01:10:18;100781.47;;;23.45;43.64
62847;BME280;49477;35.676;139.586;2023-05-15T01:12:47;100778.86;;;23.55;43.87
62847;BME280;49477;35.676;139.586;2023-05-15T01:15:18;100775.64;;;24.29;44.16
62847;BME280;49477;35.676;139.586;2023-05-15T01:17:48;100773.18;;;23.71;43.95
62847;BME280;49477;35.676;139.586;2023-05-15T01:20:18;100769.46;;;23.47;44.01
62847;BME280;49477;35.676;139.586;2023-05-15T01:22:58;100769.75;;;24.07;44.21
62847;BME280;49477;35.676;139.586;2023-05-15T01:27:45;100765.62;;;24.16;44.48
62847;BME280;49477;35.676;139.586;2023-05-15T01:30:20;100760.12;;;23.91;43.41
62847;BME280;49477;35.676;139.586;2023-05-15T01:32:57;100754.17;;;23.90;43.31
62847;BME280;49477;35.676;139.586;2023-05-15T01:35:34;100750.88;;;24.31;43.20
62847;BME280;49477;35.676;139.586;2023-05-15T01:38:11;100745.06;;;24.34;42.16
62847;BME280;49477;35.676;139.586;2023-05-15T01:40:45;100739.58;;;24.28;43.60
62847;BME280;49477;35.676;139.586;2023-05-15T01:43:20;100738.90;;;24.38;43.54
62847;BME280;49477;35.676;139.586;2023-05-15T01:45:52;100740.68;;;24.13;43.75
62847;BME280;49477;35.676;139.586;2023-05-15T01:48:23;100736.81;;;24.60;43.31
62847;BME280;49477;35.676;139.586;2023-05-15T01:50:55;100733.33;;;24.15;42.83
62847;BME280;49477;35.676;139.586;2023-05-15T01:53:27;100726.89;;;24.58;43.08
62847;BME280;49477;35.676;139.586;2023-05-15T01:55:58;100724.06;;;24.81;42.38
62847;BME280;49477;35.676;139.586;2023-05-15T01:58:28;100720.88;;;24.84;42.67
62847;BME280;49477;35.676;139.586;2023-05-15T02:01:00;100720.83;;;24.48;43.01
62847;BME280;49477;35.676;139.586;2023-05-15T02:03:31;100717.36;;;24.93;42.01
62847;BME280;49477;35.676;139.586;2023-05-15T02:06:00;100716.04;;;24.75;42.43
62847;BME280;49477;35.676;139.586;2023-05-15T02:08:31;100712.26;;;24.81;42.19
62847;BME280;49477;35.676;139.586;2023-05-15T02:11:01;100709.47;;;24.63;42.26
62847;BME280;49477;35.676;139.586;2023-05-15T02:13:31;100708.83;;;25.12;41.65
62847;BME280;49477;35.676;139.586;2023-05-15T02:16:00;100710.33;;;24.85;41.40
62847;BME280;49477;35.676;139.586;2023-05-15T02:18:30;100705.44;;;25.14;41.03
62847;BME280;49477;35.676;139.586;2023-05-15T02:20:59;100703.70;;;24.83;41.53
62847;BME280;49477;35.676;139.586;2023-05-15T02:23:29;100694.68;;;24.87;41.39
62847;BME280;49477;35.676;139.586;2023-05-15T02:26:10;100687.85;;;24.96;41.28
62847;BME280;49477;35.676;139.586;2023-05-15T02:28:49;100678.44;;;25.15;41.44
62847;BME280;49477;35.676;139.586;2023-05-15T02:31:31;100676.88;;;24.77;41.11
62847;BME280;49477;35.676;139.586;2023-05-15T02:34:11;100675.72;;;24.88;41.16
62847;BME280;49477;35.676;139.586;2023-05-15T02:36:46;100670.76;;;25.17;41.43
62847;BME280;49477;35.676;139.586;2023-05-15T02:39:18;100666.22;;;25.03;41.53
62847;BME280;49477;35.676;139.586;2023-05-15T02:41:48;100659.31;;;24.53;41.49
62847;BME280;49477;35.676;139.586;2023-05-15T02:44:18;100656.80;;;25.18;41.16
62847;BME280;49477;35.676;139.586;2023-05-15T02:46:48;100656.78;;;25.22;41.72
62847;BME280;49477;35.676;139.586;2023-05-15T02:49:18;100650.06;;;24.98;41.66
62847;BME280;49477;35.676;139.586;2023-05-15T02:51:48;100647.83;;;24.62;41.20
62847;BME280;49477;35.676;139.586;2023-05-15T02:54:18;100643.23;;;24.64;41.35
62847;BME280;49477;35.676;139.586;2023-05-15T02:56:48;100642.29;;;24.66;41.00
62847;BME280;49477;35.676;139.586;2023-05-15T02:59:17;100640.56;;;25.40;40.51
62847;BME280;49477;35.676;139.586;2023-05-15T03:01:47;100644.24;;;25.29;40.91
62847;BME280;49477;35.676;139.586;2023-05-15T03:04:16;100642.67;;;25.29;40.45
62847;BME280;49477;35.676;139.586;2023-05-15T03:06:46;100634.93;;;25.35;39.83
62847;BME280;49477;35.676;139.586;2023-05-15T03:09:15;100635.40;;;24.94;40.49
62847;BME280;49477;35.676;139.586;2023-05-15T03:11:44;100635.41;;;25.19;40.64
62847;BME280;49477;35.676;139.586;2023-05-15T03:14:14;100633.40;;;24.98;40.71
62847;BME280;49477;35.676;139.586;2023-05-15T03:16:43;100628.32;;;25.07;40.71
62847;BME280;49477;35.676;139.586;2023-05-15T03:19:13;100624.22;;;25.09;40.70
62847;BME280;49477;35.676;139.586;2023-05-15T03:21:42;100620.96;;;25.48;40.14
62847;BME280;49477;35.676;139.586;2023-05-15T03:24:12;100620.62;;;25.22;40.42
62847;BME280;49477;35.676;139.586;2023-05-15T03:26:42;100620.05;;;25.18;40.06
62847;BME280;49477;35.676;139.586;2023-05-15T03:29:11;100616.85;;;25.27;40.05
62847;BME280;49477;35.676;139.586;2023-05-15T03:31:40;100613.54;;;25.18;40.17
62847;BME280;49477;35.676;139.586;2023-05-15T03:34:10;100612.44;;;25.20;40.44
62847;BME280;49477;35.676;139.586;2023-05-15T03:36:39;100612.13;;;25.46;40.77
62847;BME280;49477;35.676;139.586;2023-05-15T03:39:08;100614.71;;;25.41;40.40
62847;BME280;49477;35.676;139.586;2023-05-15T03:41:38;100614.04;;;25.07;40.84
62847;BME280;49477;35.676;139.586;2023-05-15T03:44:07;100615.27;;;25.13;40.97
62847;BME280;49477;35.676;139.586;2023-05-15T03:46:37;100608.30;;;25.09;40.91
62847;BME280;49477;35.676;139.586;2023-05-15T03:49:06;100605.56;;;25.22;41.09
62847;BME280;49477;35.676;139.586;2023-05-15T03:51:35;100601.74;;;25.62;40.70
62847;BME280;49477;35.676;139.586;2023-05-15T03:54:04;100598.51;;;25.07;40.96
62847;BME280;49477;35.676;139.586;2023-05-15T03:56:33;100596.33;;;25.26;41.07
62847;BME280;49477;35.676;139.586;2023-05-15T03:59:03;100595.91;;;25.55;40.56
62847;BME280;49477;35.676;139.586;2023-05-15T04:01:32;100589.67;;;25.32;40.43
62847;BME280;49477;35.676;139.586;2023-05-15T04:04:01;100586.62;;;25.30;40.36
62847;BME280;49477;35.676;139.586;2023-05-15T04:06:31;100586.01;;;25.22;40.39
62847;BME280;49477;35.676;139.586;2023-05-15T04:09:00;100585.04;;;25.17;40.57
62847;BME280;49477;35.676;139.586;2023-05-15T04:11:30;100585.67;;;25.26;40.56
62847;BME280;49477;35.676;139.586;2023-05-15T04:13:59;100584.40;;;25.21;40.63
62847;BME280;49477;35.676;139.586;2023-05-15T04:16:29;100578.92;;;24.91;40.65
62847;BME280;49477;35.676;139.586;2023-05-15T04:18:58;100577.26;;;24.94;40.72
62847;BME280;49477;35.676;139.586;2023-05-15T04:21:27;100579.56;;;25.17;40.87
62847;BME280;49477;35.676;139.586;2023-05-15T04:23:56;100578.81;;;24.87;40.77
62847;BME280;49477;35.676;139.586;2023-05-15T04:26:26;100578.73;;;25.11;40.48
62847;BME280;49477;35.676;139.586;2023-05-15T04:28:56;100575.76;;;24.72;40.43
62847;BME280;49477;35.676;139.586;2023-05-15T04:31:25;100574.13;;;25.15;40.46
62847;BME280;49477;35.676;139.586;2023-05-15T04:33:54;100567.42;;;24.95;39.88
62847;BME280;49477;35.676;139.586;2023-05-15T04:36:24;100560.14;;;24.77;39.99
62847;BME280;49477;35.676;139.586;2023-05-15T04:38:53;100555.75;;;25.00;39.85
62847;BME280;49477;35.676;139.586;2023-05-15T04:41:23;100553.06;;;24.71;40.10
62847;BME280;49477;35.676;139.586;2023-05-15T04:43:52;100552.01;;;24.84;40.36
62847;BME280;49477;35.676;139.586;2023-05-15T04:46:22;100555.22;;;25.04;40.75
62847;BME280;49477;35.676;139.586;2023-05-15T04:48:51;100549.47;;;24.82;40.49
62847;BME280;49477;35.676;139.586;2023-05-15T04:51:20;100544.86;;;24.76;40.22
62847;BME280;49477;35.676;139.586;2023-05-15T04:53:50;100539.80;;;24.85;39.88
62847;BME280;49477;35.676;139.586;2023-05-15T04:56:19;100533.23;;;25.09;39.89
62847;BME280;49477;35.676;139.586;2023-05-15T04:58:49;100531.12;;;24.76;40.10
62847;BME280;49477;35.676;139.586;2023-05-15T05:01:18;100523.37;;;24.57;39.94
62847;BME280;49477;35.676;139.586;2023-05-15T05:03:47;100516.04;;;25.05;39.94
62847;BME280;49477;35.676;139.586;2023-05-15T05:06:16;100513.81;;;24.84;40.60
62847;BME280;49477;35.676;139.586;2023-05-15T05:08:46;100516.76;;;24.87;40.45
62847;BME280;49477;35.676;139.586;2023-05-15T05:11:15;100517.24;;;24.90;40.30
62847;BME280;49477;35.676;139.586;2023-05-15T05:13:44;100510.28;;;24.57;40.01
62847;BME280;49477;35.676;139.586;2023-05-15T05:16:14;100497.83;;;24.74;39.82
62847;BME280;49477;35.676;139.586;2023-05-15T05:18:43;100488.41;;;24.87;40.01
62847;BME280;49477;35.676;139.586;2023-05-15T05:21:12;100484.08;;;24.54;39.98
62847;BME280;49477;35.676;139.586;2023-05-15T05:23:41;100488.48;;;25.15;40.15
62847;BME280;49477;35.676;139.586;2023-05-15T05:26:11;100489.14;;;24.68;39.91
62847;BME280;49477;35.676;139.586;2023-05-15T05:28:40;100494.47;;;24.91;39.89
62847;BME280;49477;35.676;139.586;2023-05-15T05:31:10;100498.17;;;24.48;39.97
62847;BME280;49477;35.676;139.586;2023-05-15T05:33:39;100496.94;;;24.56;39.66
62847;BME280;49477;35.676;139.586;2023-05-15T05:36:09;100495.36;;;24.43;39.88
62847;BME280;49477;35.676;139.586;2023-05-15T05:38:38;100498.60;;;24.80;39.83
62847;BME280;49477;35.676;139.586;2023-05-15T05:41:07;100500.78;;;24.41;39.54
62847;BME280;49477;35.676;139.586;2023-05-15T05:43:37;100499.64;;;24.90;39.77
62847;BME280;49477;35.676;139.586;2023-05-15T05:46:06;100496.99;;;24.52;39.93
62847;BME280;49477;35.676;139.586;2023-05-15T05:48:35;100496.62;;;24.53;39.93
62847;BME280;49477;35.676;139.586;2023-05-15T05:51:05;100499.68;;;24.22;39.40
62847;BME280;49477;35.676;139.586;2023-05-15T05:53:34;100499.30;;;24.50;39.18
62847;BME280;49477;35.676;139.586;2023-05-15T05:56:04;100501.23;;;24.35;39.28
62847;BME280;49477;35.676;139.586;2023-05-15T05:58:33;100498.99;;;24.79;39.45
62847;BME280;49477;35.676;139.586;2023-05-15T06:01:03;100500.10;;;24.01;40.25
62847;BME280;49477;35.676;139.586;2023-05-15T06:03:32;100500.58;;;24.75;40.36
62847;BME280;49477;35.676;139.586;2023-05-15T06:06:01;100502.23;;;24.38;40.66
62847;BME280;49477;35.676;139.586;2023-05-15T06:08:31;100502.35;;;24.51;40.97
62847;BME280;49477;35.676;139.586;2023-05-15T06:11:00;100505.28;;;24.31;41.40
62847;BME280;49477;35.676;139.586;2023-05-15T06:13:29;100500.54;;;24.40;41.27
62847;BME280;49477;35.676;139.586;2023-05-15T06:15:58;100496.77;;;24.24;41.25
62847;BME280;49477;35.676;139.586;2023-05-15T06:18:28;100498.87;;;24.36;41.32
62847;BME280;49477;35.676;139.586;2023-05-15T06:20:57;100501.60;;;24.32;41.96
62847;BME280;49477;35.676;139.586;2023-05-15T06:23:27;100499.71;;;24.09;41.46
62847;BME280;49477;35.676;139.586;2023-05-15T06:25:56;100499.32;;;23.83;41.81
62847;BME280;49477;35.676;139.586;2023-05-15T06:28:25;100500.19;;;24.33;42.11
62847;BME280;49477;35.676;139.586;2023-05-15T06:30:53;100500.57;;;23.98;42.34
62847;BME280;49477;35.676;139.586;2023-05-15T06:33:23;100501.34;;;24.01;42.72
62847;BME280;49477;35.676;139.586;2023-05-15T06:35:52;100499.52;;;23.35;43.08
62847;BME280;49477;35.676;139.586;2023-05-15T06:38:21;100496.60;;;23.97;43.02
62847;BME280;49477;35.676;139.586;2023-05-15T06:40:51;100496.15;;;24.03;42.99
62847;BME280;49477;35.676;139.586;2023-05-15T06:43:20;100492.88;;;23.86;43.11
62847;BME280;49477;35.676;139.586;2023-05-15T06:45:50;100493.94;;;23.81;43.39
62847;BME280;49477;35.676;139.586;2023-05-15T06:48:19;100497.29;;;23.80;43.25
62847;BME280;49477;35.676;139.586;2023-05-15T06:50:48;100504.21;;;23.83;43.31
62847;BME280;49477;35.676;139.586;2023-05-15T06:53:17;100505.74;;;23.89;43.20
62847;BME280;49477;35.676;139.586;2023-05-15T06:55:46;100509.07;;;23.86;43.11
62847;BME280;49477;35.676;139.586;2023-05-15T06:58:16;100510.55;;;23.75;42.13
62847;BME280;49477;35.676;139.586;2023-05-15T07:00:46;100508.22;;;23.71;41.60
62847;BME280;49477;35.676;139.586;2023-05-15T07:03:15;100514.94;;;23.67;41.68
62847;BME280;49477;35.676;139.586;2023-05-15T07:05:45;100510.55;;;23.63;41.83
62847;BME280;49477;35.676;139.586;2023-05-15T07:08:14;100508.65;;;23.65;41.88
62847;BME280;49477;35.676;139.586;2023-05-15T07:10:43;100503.55;;;23.71;41.96
62847;BME280;49477;35.676;139.586;2023-05-15T07:13:13;100510.24;;;23.60;42.42
62847;BME280;49477;35.676;139.586;2023-05-15T07:15:43;100510.21;;;24.06;42.43
62847;BME280;49477;35.676;139.586;2023-05-15T07:18:13;100513.76;;;23.69;42.41
62847;BME280;49477;35.676;139.586;2023-05-15T07:20:42;100517.31;;;23.53;43.21
62847;BME280;49477;35.676;139.586;2023-05-15T07:23:11;100516.57;;;23.51;43.31
62847;BME280;49477;35.676;139.586;2023-05-15T07:25:41;100518.25;;;23.95;42.77
62847;BME280;49477;35.676;139.586;2023-05-15T07:28:10;100515.33;;;23.55;42.75
62847;BME280;49477;35.676;139.586;2023-05-15T07:30:40;100515.15;;;23.43;43.22
62847;BME280;49477;35.676;139.586;2023-05-15T07:33:09;100511.39;;;23.48;42.58
62847;BME280;49477;35.676;139.586;2023-05-15T07:35:39;100513.35;;;23.36;42.83
62847;BME280;49477;35.676;139.586;2023-05-15T07:38:08;100514.70;;;23.37;42.97
62847;BME280;49477;35.676;139.586;2023-05-15T07:40:38;100517.95;;;23.32;42.95
62847;BME280;49477;35.676;139.586;2023-05-15T07:43:07;100521.67;;;23.58;42.98
62847;BME280;49477;35.676;139.586;2023-05-15T07:45:36;100522.19;;;23.11;43.78
62847;BME280;49477;35.676;139.586;2023-05-15T07:48:21;100515.93;;;23.34;43.82
62847;BME280;49477;35.676;139.586;2023-05-15T07:50:51;100514.42;;;23.22;44.42
62847;BME280;49477;35.676;139.586;2023-05-15T07:53:20;100516.47;;;23.27;44.44
62847;BME280;49477;35.676;139.586;2023-05-15T07:55:50;100515.15;;;23.35;44.16
62847;BME280;49477;35.676;139.586;2023-05-15T07:58:20;100515.32;;;23.45;43.79
62847;BME280;49477;35.676;139.586;2023-05-15T08:00:49;100516.83;;;23.41;43.91
62847;BME280;49477;35.676;139.586;2023-05-15T08:03:18;100517.60;;;23.21;43.70
62847;BME280;49477;35.676;139.586;2023-05-15T08:05:47;100516.87;;;23.51;43.52
62847;BME280;49477;35.676;139.586;2023-05-15T08:08:17;100513.79;;;23.27;43.98
62847;BME280;49477;35.676;139.586;2023-05-15T08:10:46;100512.35;;;23.58;43.72
62847;BME280;49477;35.676;139.586;2023-05-15T08:13:15;100508.87;;;23.41;43.67
62847;BME280;49477;35.676;139.586;2023-05-15T08:15:46;100507.44;;;23.11;43.73
62847;BME280;49477;35.676;139.586;2023-05-15T08:18:15;100509.37;;;23.20;43.65
62847;BME280;49477;35.676;139.586;2023-05-15T08:20:46;100514.03;;;23.08;44.23
62847;BME280;49477;35.676;139.586;2023-05-15T08:23:15;100515.63;;;23.50;43.92
62847;BME280;49477;35.676;139.586;2023-05-15T08:25:43;100515.82;;;23.70;43.32
62847;BME280;49477;35.676;139.586;2023-05-15T08:28:13;100520.26;;;23.71;43.94
62847;BME280;49477;35.676;139.586;2023-05-15T08:30:42;100523.84;;;23.28;44.12
62847;BME280;49477;35.676;139.586;2023-05-15T08:33:12;100524.56;;;23.07;44.46
62847;BME280;49477;35.676;139.586;2023-05-15T08:35:41;100523.88;;;23.29;43.81
62847;BME280;49477;35.676;139.586;2023-05-15T08:38:10;100524.47;;;23.68;44.14
62847;BME280;49477;35.676;139.586;2023-05-15T08:40:40;100529.25;;;23.35;44.23
62847;BME280;49477;35.676;139.586;2023-05-15T08:43:15;100529.86;;;23.24;43.86
62847;BME280;49477;35.676;139.586;2023-05-15T08:45:45;100530.54;;;23.22;44.10
62847;BME280;49477;35.676;139.586;2023-05-15T08:48:16;100532.21;;;23.26;44.76
62847;BME280;49477;35.676;139.586;2023-05-15T08:50:46;100530.76;;;23.56;44.36
62847;BME280;49477;35.676;139.586;2023-05-15T08:53:16;100531.97;;;23.53;44.49
62847;BME280;49477;35.676;139.586;2023-05-15T08:55:46;100530.48;;;23.68;44.08
62847;BME280;49477;35.676;139.586;2023-05-15T08:58:16;100534.06;;;23.05;44.50
62847;BME280;49477;35.676;139.586;2023-05-15T09:00:45;100542.42;;;23.25;44.63
62847;BME280;49477;35.676;139.586;2023-05-15T09:03:15;100549.38;;;23.23;44.69
62847;BME280;49477;35.676;139.586;2023-05-15T09:05:44;100552.81;;;23.49;44.53
62847;BME280;49477;35.676;139.586;2023-05-15T09:08:16;100556.20;;;23.37;44.65
62847;BME280;49477;35.676;139.586;2023-05-15T09:10:47;100555.77;;;23.11;45.67
62847;BME280;49477;35.676;139.586;2023-05-15T09:13:17;100560.04;;;23.11;44.69
62847;BME280;49477;35.676;139.586;2023-05-15T09:15:47;100565.82;;;23.14;45.30
62847;BME280;49477;35.676;139.586;2023-05-15T09:18:16;100566.88;;;23.21;45.27
62847;BME280;49477;35.676;139.586;2023-05-15T09:20:46;100571.15;;;23.08;45.70
62847;BME280;49477;35.676;139.586;2023-05-15T09:23:30;100572.77;;;22.70;46.11
62847;BME280;49477;35.676;139.586;2023-05-15T09:26:00;100571.76;;;23.01;45.88
62847;BME280;49477;35.676;139.586;2023-05-15T09:28:31;100573.60;;;22.97;46.14
62847;BME280;49477;35.676;139.586;2023-05-15T09:31:02;100569.48;;;22.89;46.19
62847;BME280;49477;35.676;139.586;2023-05-15T09:33:33;100567.59;;;22.82;46.58
62847;BME280;49477;35.676;139.586;2023-05-15T09:36:04;100568.14;;;22.58;46.81
62847;BME280;49477;35.676;139.586;2023-05-15T09:38:33;100572.57;;;22.72;46.97
62847;BME280;49477;35.676;139.586;2023-05-15T09:41:04;100573.93;;;22.74;47.18
62847;BME280;49477;35.676;139.586;2023-05-15T09:43:35;100574.42;;;22.63;47.24
62847;BME280;49477;35.676;139.586;2023-05-15T09:46:05;100572.95;;;22.65;47.18
62847;BME280;49477;35.676;139.586;2023-05-15T09:48:35;100572.85;;;22.69;47.28
62847;BME280;49477;35.676;139.586;2023-05-15T09:51:06;100571.97;;;22.59;47.33
62847;BME280;49477;35.676;139.586;2023-05-15T09:53:42;100575.36;;;22.76;47.02
62847;BME280;49477;35.676;139.586;2023-05-15T09:56:16;100579.97;;;22.49;46.60
62847;BME280;49477;35.676;139.586;2023-05-15T09:58:53;100589.12;;;22.62;46.58
62847;BME280;49477;35.676;139.586;2023-05-15T10:01:24;100592.89;;;22.39;46.69
62847;BME280;49477;35.676;139.586;2023-05-15T10:04:05;100593.82;;;22.34;46.66
62847;BME280;49477;35.676;139.586;2023-05-15T10:06:37;100593.32;;;22.53;46.39
62847;BME280;49477;35.676;139.586;2023-05-15T10:09:07;100594.07;;;22.28;46.68
62847;BME280;49477;35.676;139.586;2023-05-15T10:11:37;100596.92;;;22.30;46.44
62847;BME280;49477;35.676;139.586;2023-05-15T10:14:08;100597.34;;;22.29;46.51
62847;BME280;49477;35.676;139.586;2023-05-15T10:16:39;100597.96;;;22.18;46.37
62847;BME280;49477;35.676;139.586;2023-05-15T10:19:10;100597.05;;;22.20;46.41
62847;BME280;49477;35.676;139.586;2023-05-15T10:21:40;100598.03;;;22.68;46.25
62847;BME280;49477;35.676;139.586;2023-05-15T10:24:11;100602.38;;;22.14;46.17
62847;BME280;49477;35.676;139.586;2023-05-15T10:26:42;100600.69;;;22.36;45.98
62847;BME280;49477;35.676;139.586;2023-05-15T10:29:12;100606.10;;;22.34;46.18
62847;BME280;49477;35.676;139.586;2023-05-15T10:31:42;100601.73;;;22.30;46.38
62847;BME280;49477;35.676;139.586;2023-05-15T10:34:11;100601.22;;;22.28;46.05
62847;BME280;49477;35.676;139.586;2023-05-15T10:36:42;100601.37;;;22.53;45.85
62847;BME280;49477;35.676;139.586;2023-05-15T10:39:12;100603.06;;;22.23;45.95
62847;BME280;49477;35.676;139.586;2023-05-15T10:41:41;100601.30;;;22.41;45.98
62847;BME280;49477;35.676;139.586;2023-05-15T10:44:11;100604.02;;;21.87;45.95
62847;BME280;49477;35.676;139.586;2023-05-15T10:46:42;100601.01;;;22.11;46.10
62847;BME280;49477;35.676;139.586;2023-05-15T10:49:11;100600.02;;;22.02;45.99
62847;BME280;49477;35.676;139.586;2023-05-15T10:51:42;100599.81;;;22.03;45.98
62847;BME280;49477;35.676;139.586;2023-05-15T10:54:12;100602.54;;;22.22;46.00
62847;BME280;49477;35.676;139.586;2023-05-15T10:56:42;100605.49;;;21.93;45.89
62847;BME280;49477;35.676;139.586;2023-05-15T10:59:11;100612.99;;;21.95;45.80
62847;BME280;49477;35.676;139.586;2023-05-15T11:01:40;100616.80;;;22.16;45.81
62847;BME280;49477;35.676;139.586;2023-05-15T11:04:11;100618.11;;;22.13;45.78
62847;BME280;49477;35.676;139.586;2023-05-15T11:06:42;100618.59;;;21.74;45.76
62847;BME280;49477;35.676;139.586;2023-05-15T11:09:47;100623.27;;;21.69;45.84
62847;BME280;49477;35.676;139.586;2023-05-15T11:12:17;100626.06;;;21.73;45.84
62847;BME280;49477;35.676;139.586;2023-05-15T11:15:17;100627.17;;;21.66;45.95
62847;BME280;49477;35.676;139.586;2023-05-15T11:18:03;100635.99;;;21.83;45.81
62847;BME280;49477;35.676;139.586;2023-05-15T11:20:36;100638.81;;;21.85;45.88
62847;BME280;49477;35.676;139.586;2023-05-15T11:23:06;100640.36;;;21.83;46.04
62847;BME280;49477;35.676;139.586;2023-05-15T11:25:36;100639.83;;;21.49;46.40
62847;BME280;49477;35.676;139.586;2023-05-15T11:28:12;100640.68;;;21.56;46.24
62847;BME280;49477;35.676;139.586;2023-05-15T11:30:51;100644.88;;;21.83;46.34
62847;BME280;49477;35.676;139.586;2023-05-15T11:33:21;100644.49;;;21.83;46.21
62847;BME280;49477;35.676;139.586;2023-05-15T11:35:58;100647.06;;;21.53;46.35
62847;BME280;49477;35.676;139.586;2023-05-15T11:38:28;100647.50;;;21.70;46.46
62847;BME280;49477;35.676;139.586;2023-05-15T11:41:18;100650.14;;;21.45;46.43
62847;BME280;49477;35.676;139.586;2023-05-15T11:43:48;100644.34;;;21.40;46.30
62847;BME280;49477;35.676;139.586;2023-05-15T11:46:18;100637.35;;;21.56;46.62
62847;BME280;49477;35.676;139.586;2023-05-15T11:48:50;100636.55;;;21.69;46.42
62847;BME280;49477;35.676;139.586;2023-05-15T11:51:21;100637.34;;;21.72;46.18
62847;BME280;49477;35.676;139.586;2023-05-15T11:53:52;100638.49;;;21.63;46.39
62847;BME280;49477;35.676;139.586;2023-05-15T11:56:23;100637.26;;;21.61;46.41
62847;BME280;49477;35.676;139.586;2023-05-15T11:58:54;100636.95;;;21.29;46.71
62847;BME280;49477;35.676;139.586;2023-05-15T12:01:23;100633.58;;;21.64;46.49
62847;BME280;49477;35.676;139.586;2023-05-15T12:03:52;100634.64;;;21.60;46.61
62847;BME280;49477;35.676;139.586;2023-05-15T12:06:21;100632.83;;;21.58;46.61
62847;BME280;49477;35.676;139.586;2023-05-15T12:08:52;100635.06;;;21.51;47.03
62847;BME280;49477;35.676;139.586;2023-05-15T12:11:22;100633.37;;;21.56;46.89
62847;BME280;49477;35.676;139.586;2023-05-15T12:13:52;100628.93;;;21.59;46.81
62847;BME280;49477;35.676;139.586;2023-05-15T12:16:25;100630.58;;;21.61;46.76
62847;BME280;49477;35.676;139.586;2023-05-15T12:18:55;100631.37;;;21.56;46.88
62847;BME280;49477;35.676;139.586;2023-05-15T12:21:26;100630.81;;;21.55;46.96
62847;BME280;49477;35.676;139.586;2023-05-15T12:23:56;100631.43;;;21.49;46.96
62847;BME280;49477;35.676;139.586;2023-05-15T12:26:26;100633.19;;;21.45;47.17
62847;BME280;49477;35.676;139.586;2023-05-15T12:28:57;100632.76;;;21.45;47.14
62847;BME280;49477;35.676;139.586;2023-05-15T12:31:26;100629.29;;;21.56;46.88
62847;BME280;49477;35.676;139.586;2023-05-15T12:33:55;100626.53;;;21.44;47.03
62847;BME280;49477;35.676;139.586;2023-05-15T12:36:27;100621.65;;;21.72;47.12
62847;BME280;49477;35.676;139.586;2023-05-15T12:38:57;100622.47;;;21.22;47.08
62847;BME280;49477;35.676;139.586;2023-05-15T12:41:28;100622.81;;;21.51;46.93
62847;BME280;49477;35.676;139.586;2023-05-15T12:43:57;100624.19;;;21.55;46.79
62847;BME280;49477;35.676;139.586;2023-05-15T12:46:30;100626.82;;;21.50;46.95
62847;BME280;49477;35.676;139.586;2023-05-15T12:49:00;100627.86;;;21.52;46.84